Time;durP1;ratioP1;P1;durP2;ratioP2;P2;SDS_P1;SDS_P2;PMS_P1;PMS_P2;Temp;Humidity;BMP_temperature;BMP_pressure;BME280_temperature;BME280_humidity;BME280_pressure;Samples;Min_cycle;Max_cycle;Signal;HPM_P1;HPM_P2
2022/03/15 00:00:23;;;;;;;20.60;13.90;;;;;;;;;;6244266;22;20026;-84
2022/03/15 00:02:49;;;;;;;20.63;14.20;;;;;;;;;;6281690;22;20000;-84
2022/03/15 00:05:19;;;;;;;22.70;15.02;;;;;;;;;;6254813;22;20355;-84
2022/03/15 00:07:46;;;;;;;23.73;15.40;;;;;;;;;;6253493;22;20042;-84
2022/03/15 00:10:13;;;;;;;23.80;15.20;;;;;;;;;;6281259;22;20435;-84
2022/03/15 00:12:39;;;;;;;24.48;14.98;;;;;;;;;;6254488;22;20023;-84
2022/03/15 00:15:08;;;;;;;24.17;15.32;;;;;;;;;;6253336;22;19999;-84
2022/03/15 00:17:35;;;;;;;24.60;14.77;;;;;;;;;;6253254;22;20000;-84
2022/03/15 00:20:01;;;;;;;28.23;17.23;;;;;;;;;;6253733;22;20010;-84
2022/03/15 00:22:27;;;;;;;21.88;15.50;;;;;;;;;;6253800;22;20027;-83
2022/03/15 00:24:53;;;;;;;25.13;15.05;;;;;;;;;;6280992;22;19999;-83
2022/03/15 00:27:19;;;;;;;25.35;16.35;;;;;;;;;;6254615;22;20007;-84
2022/03/15 00:29:46;;;;;;;25.65;15.90;;;;;;;;;;6278885;22;20276;-83
2022/03/15 00:32:14;;;;;;;25.02;15.27;;;;;;;;;;6253726;22;20004;-84
2022/03/15 00:34:40;;;;;;;25.35;15.38;;;;;;;;;;6281254;22;20004;-84
2022/03/15 00:37:06;;;;;;;23.23;14.95;;;;;;;;;;6253264;22;20449;-84
2022/03/15 00:39:32;;;;;;;21.83;14.77;;;;;;;;;;6253341;22;20379;-84
2022/03/15 00:41:58;;;;;;;26.75;15.57;;;;;;;;;;6252955;22;20026;-83
2022/03/15 00:44:24;;;;;;;23.23;14.43;;;;;;;;;;6280972;22;20003;-84
2022/03/15 00:46:52;;;;;;;22.02;14.50;;;;;;;;;;6280483;22;20000;-85
2022/03/15 00:49:18;;;;;;;23.35;15.02;;;;;;;;;;6252763;22;20348;-83
2022/03/15 00:51:44;;;;;;;23.55;14.45;;;;;;;;;;6279956;22;19996;-82
2022/03/15 00:54:10;;;;;;;25.65;16.23;;;;;;;;;;6279899;22;20082;-84
2022/03/15 00:56:36;;;;;;;24.23;15.10;;;;;;;;;;6280335;22;20006;-83
2022/03/15 00:59:02;;;;;;;23.63;15.60;;;;;;;;;;6252607;22;20000;-83
2022/03/15 01:01:29;;;;;;;23.60;15.00;;;;;;;;;;6252482;22;20443;-84
2022/03/15 01:03:55;;;;;;;28.80;16.55;;;;;;;;;;6280262;22;20008;-84
2022/03/15 01:06:21;;;;;;;25.52;15.63;;;;;;;;;;6252330;22;20007;-83
2022/03/15 01:08:48;;;;;;;22.88;14.45;;;;;;;;;;6280020;22;20004;-83
2022/03/15 01:11:14;;;;;;;24.98;14.77;;;;;;;;;;6252859;22;20348;-82
2022/03/15 01:13:40;;;;;;;29.58;16.65;;;;;;;;;;6252378;22;20011;-83
2022/03/15 01:16:06;;;;;;;21.63;13.63;;;;;;;;;;6252245;22;20039;-84
2022/03/15 01:18:34;;;;;;;21.05;13.93;;;;;;;;;;6279940;22;20002;-83
2022/03/15 01:21:00;;;;;;;19.90;12.95;;;;;;;;;;6279130;22;20022;-84
2022/03/15 01:23:26;;;;;;;21.90;13.60;;;;;;;;;;6279447;22;20004;-83
2022/03/15 01:25:52;;;;;;;22.25;13.57;;;;;;;;;;6252061;22;20138;-83
2022/03/15 01:28:18;;;;;;;22.05;14.73;;;;;;;;;;6279771;22;20019;-83
2022/03/15 01:30:44;;;;;;;24.85;14.77;;;;;;;;;;6280058;22;20383;-83
2022/03/15 01:33:10;;;;;;;25.33;15.85;;;;;;;;;;6251568;22;20000;-82
2022/03/15 01:35:36;;;;;;;32.50;20.30;;;;;;;;;;6252572;22;20030;-83
2022/03/15 01:38:02;;;;;;;35.67;20.75;;;;;;;;;;6253100;22;20027;-83
2022/03/15 01:40:28;;;;;;;35.40;20.90;;;;;;;;;;6252509;22;20398;-83
2022/03/15 01:42:54;;;;;;;30.15;19.13;;;;;;;;;;6279845;22;20004;-83
2022/03/15 01:45:20;;;;;;;26.95;16.10;;;;;;;;;;6279141;22;20330;-83
2022/03/15 01:47:46;;;;;;;25.65;15.55;;;;;;;;;;6280068;22;20030;-83
2022/03/15 01:50:12;;;;;;;23.45;14.57;;;;;;;;;;6279342;22;20004;-84
2022/03/15 01:52:38;;;;;;;21.98;13.68;;;;;;;;;;6279401;22;20074;-84
2022/03/15 01:55:05;;;;;;;22.45;13.38;;;;;;;;;;6251839;22;20482;-83
2022/03/15 01:57:31;;;;;;;39.33;20.85;;;;;;;;;;6279209;22;19996;-83
2022/03/15 01:59:58;;;;;;;32.10;19.15;;;;;;;;;;6251696;22;20071;-84
2022/03/15 02:02:24;;;;;;;39.33;22.17;;;;;;;;;;6252678;22;20019;-82
2022/03/15 02:04:50;;;;;;;26.38;16.08;;;;;;;;;;6253284;22;20451;-83
2022/03/15 02:07:16;;;;;;;31.58;18.38;;;;;;;;;;6281824;22;20007;-84
2022/03/15 02:09:42;;;;;;;38.58;21.30;;;;;;;;;;6281254;22;20003;-83
2022/03/15 02:12:09;;;;;;;40.85;22.88;;;;;;;;;;6280891;22;20082;-83
2022/03/15 02:14:35;;;;;;;53.45;27.33;;;;;;;;;;6283150;22;20023;-83
2022/03/15 02:17:01;;;;;;;47.97;25.58;;;;;;;;;;6254090;22;19992;-83
2022/03/15 02:19:27;;;;;;;43.55;22.30;;;;;;;;;;6253564;22;20004;-83
2022/03/15 02:21:57;;;;;;;35.92;20.60;;;;;;;;;;6253125;22;20000;-83
2022/03/15 02:24:23;;;;;;;50.72;25.52;;;;;;;;;;6254651;22;20059;-83
2022/03/15 02:26:51;;;;;;;68.45;34.35;;;;;;;;;;6281517;22;20570;-83
2022/03/15 02:29:17;;;;;;;29.88;18.23;;;;;;;;;;6253755;22;19999;-83
2022/03/15 02:31:43;;;;;;;21.52;13.23;;;;;;;;;;6253411;22;20142;-83
2022/03/15 02:34:10;;;;;;;22.83;13.77;;;;;;;;;;6281335;22;20003;-83
2022/03/15 02:36:36;;;;;;;22.70;14.07;;;;;;;;;;6255163;22;20358;-84
2022/03/15 02:39:02;;;;;;;23.20;14.13;;;;;;;;;;6253441;22;20027;-84
2022/03/15 02:41:28;;;;;;;21.20;13.20;;;;;;;;;;6283245;22;20000;-84
2022/03/15 02:43:57;;;;;;;20.90;13.52;;;;;;;;;;6283462;22;20000;-84
2022/03/15 02:46:30;;;;;;;20.45;12.93;;;;;;;;;;6283202;22;20000;-83
2022/03/15 02:48:56;;;;;;;18.77;12.95;;;;;;;;;;6255817;22;20030;-84
2022/03/15 02:51:22;;;;;;;22.70;13.57;;;;;;;;;;6256489;22;20003;-83
2022/03/15 02:53:52;;;;;;;18.70;12.32;;;;;;;;;;6255947;22;20042;-84
2022/03/15 02:56:18;;;;;;;21.92;12.65;;;;;;;;;;6255187;22;20007;-84
2022/03/15 02:58:44;;;;;;;19.58;12.32;;;;;;;;;;6282342;22;19992;-83
2022/03/15 03:01:10;;;;;;;20.70;13.75;;;;;;;;;;6255165;22;20030;-84
2022/03/15 03:03:37;;;;;;;19.92;12.52;;;;;;;;;;6253783;22;20339;-84
2022/03/15 03:06:03;;;;;;;20.83;12.73;;;;;;;;;;6280314;22;20004;-84
2022/03/15 03:08:30;;;;;;;21.98;12.80;;;;;;;;;;6255362;22;20008;-85
2022/03/15 03:10:57;;;;;;;17.10;12.30;;;;;;;;;;6255735;22;20007;-84
2022/03/15 03:13:26;;;;;;;17.95;12.18;;;;;;;;;;6256554;22;20035;-84
2022/03/15 03:15:54;;;;;;;17.48;11.40;;;;;;;;;;6282622;22;20091;-84
2022/03/15 03:18:20;;;;;;;21.15;12.63;;;;;;;;;;6255516;22;20387;-84
2022/03/15 03:20:47;;;;;;;21.30;12.10;;;;;;;;;;6282647;22;20019;-84
2022/03/15 03:23:14;;;;;;;21.02;12.60;;;;;;;;;;6255796;22;20033;-83
2022/03/15 03:25:42;;;;;;;18.92;12.52;;;;;;;;;;6256554;22;20003;-84
2022/03/15 03:28:08;;;;;;;23.23;14.95;;;;;;;;;;6283169;22;20004;-85
2022/03/15 03:30:37;;;;;;;20.70;13.95;;;;;;;;;;6283775;22;20422;-84
2022/03/15 03:33:03;;;;;;;22.05;14.38;;;;;;;;;;6256062;22;20003;-84
2022/03/15 03:35:29;;;;;;;34.38;17.67;;;;;;;;;;6282219;22;20377;-84
2022/03/15 03:37:55;;;;;;;31.20;18.42;;;;;;;;;;6255537;22;20000;-83
2022/03/15 03:40:21;;;;;;;27.67;17.38;;;;;;;;;;6255741;22;20022;-83
2022/03/15 03:42:48;;;;;;;32.92;18.45;;;;;;;;;;6255478;22;20008;-84
2022/03/15 03:45:14;;;;;;;31.73;18.55;;;;;;;;;;6254895;22;20007;-84
2022/03/15 03:47:40;;;;;;;30.35;19.20;;;;;;;;;;6282044;22;20082;-84
2022/03/15 03:50:09;;;;;;;32.35;19.52;;;;;;;;;;6282764;22;20083;-83
2022/03/15 03:52:35;;;;;;;32.20;19.63;;;;;;;;;;6282580;22;20008;-83
2022/03/15 03:55:02;;;;;;;32.95;19.10;;;;;;;;;;6255573;22;20007;-84
2022/03/15 03:57:29;;;;;;;26.27;18.05;;;;;;;;;;6254995;22;20370;-84
2022/03/15 03:59:55;;;;;;;24.48;15.63;;;;;;;;;;6280926;22;20018;-83
2022/03/15 04:02:21;;;;;;;23.70;15.80;;;;;;;;;;6255496;22;20344;-83
2022/03/15 04:04:47;;;;;;;22.92;14.57;;;;;;;;;;6255383;22;20004;-84
2022/03/15 04:07:14;;;;;;;21.02;14.68;;;;;;;;;;6282507;22;20019;-83
2022/03/15 04:09:40;;;;;;;31.75;16.90;;;;;;;;;;6254500;22;20526;-83
2022/03/15 04:12:07;;;;;;;25.17;16.00;;;;;;;;;;6254712;22;20034;-83
2022/03/15 04:14:35;;;;;;;27.20;17.67;;;;;;;;;;6256075;22;20006;-82
2022/03/15 04:17:02;;;;;;;25.85;17.40;;;;;;;;;;6255511;22;20035;-83
2022/03/15 04:19:28;;;;;;;28.48;19.27;;;;;;;;;;6255136;22;19995;-84
2022/03/15 04:21:54;;;;;;;28.27;18.40;;;;;;;;;;6254627;22;20424;-83
2022/03/15 04:24:20;;;;;;;32.72;19.60;;;;;;;;;;6282805;22;20004;-83
2022/03/15 04:26:47;;;;;;;26.77;17.42;;;;;;;;;;6254841;22;20443;-83
2022/03/15 04:29:13;;;;;;;27.88;18.00;;;;;;;;;;6253648;22;20012;-83
2022/03/15 04:31:40;;;;;;;26.20;16.98;;;;;;;;;;6256378;22;20431;-84
2022/03/15 04:34:06;;;;;;;27.83;17.80;;;;;;;;;;6255688;22;20123;-83
2022/03/15 04:36:35;;;;;;;27.90;18.33;;;;;;;;;;6255135;22;20000;-83
2022/03/15 04:39:01;;;;;;;26.73;17.92;;;;;;;;;;6256003;22;20004;-84
2022/03/15 04:41:27;;;;;;;25.52;17.30;;;;;;;;;;6282384;22;20332;-83
2022/03/15 04:43:53;;;;;;;24.13;17.27;;;;;;;;;;6255037;22;20011;-85
2022/03/15 04:46:20;;;;;;;24.25;15.32;;;;;;;;;;6282010;22;20006;-83
2022/03/15 04:48:46;;;;;;;22.20;15.02;;;;;;;;;;6255964;22;20383;-83
2022/03/15 04:51:13;;;;;;;24.45;15.48;;;;;;;;;;6254181;22;20004;-83
2022/03/15 04:53:39;;;;;;;23.27;15.30;;;;;;;;;;6255110;22;20014;-84
2022/03/15 04:56:05;;;;;;;20.80;13.85;;;;;;;;;;6255551;22;20000;-84
2022/03/15 04:58:31;;;;;;;22.35;14.43;;;;;;;;;;6255157;22;20057;-83
2022/03/15 05:00:58;;;;;;;23.00;15.55;;;;;;;;;;6254155;22;20023;-83
2022/03/15 05:03:24;;;;;;;23.05;14.45;;;;;;;;;;6254555;22;20004;-83
2022/03/15 05:05:50;;;;;;;27.27;16.58;;;;;;;;;;6282466;22;20087;-84
2022/03/15 05:08:17;;;;;;;26.20;15.30;;;;;;;;;;6259431;22;20008;-82
2022/03/15 05:11:18;;;;;;;22.35;14.75;;;;;;;;;;6259103;22;20478;-84
2022/03/15 05:13:40;;;;;;;24.53;14.97;;;;;;;;;;6281804;22;20011;-84
2022/03/15 05:16:07;;;;;;;23.55;15.10;;;;;;;;;;6257687;22;20004;-84
2022/03/15 05:18:34;;;;;;;22.30;14.05;;;;;;;;;;6282349;22;20022;-83
2022/03/15 05:21:00;;;;;;;23.70;14.52;;;;;;;;;;6255071;22;20002;-83
2022/03/15 05:23:26;;;;;;;21.23;14.23;;;;;;;;;;6255225;22;20470;-83
2022/03/15 05:25:52;;;;;;;23.40;14.02;;;;;;;;;;6282473;22;20025;-83
2022/03/15 05:28:18;;;;;;;23.45;15.10;;;;;;;;;;6281555;22;20049;-83
2022/03/15 05:30:44;;;;;;;26.27;14.70;;;;;;;;;;6255166;22;20351;-83
2022/03/15 05:33:10;;;;;;;24.30;14.70;;;;;;;;;;6283143;22;20000;-83
2022/03/15 05:35:36;;;;;;;23.70;14.07;;;;;;;;;;6255638;22;20010;-83
2022/03/15 05:38:04;;;;;;;21.05;14.35;;;;;;;;;;6283180;22;20018;-84
2022/03/15 05:40:30;;;;;;;24.90;16.70;;;;;;;;;;6255189;22;20000;-84
2022/03/15 05:42:56;;;;;;;22.77;15.00;;;;;;;;;;6254951;22;20034;-84
2022/03/15 05:45:22;;;;;;;24.02;14.98;;;;;;;;;;6255680;22;20070;-84
2022/03/15 05:47:49;;;;;;;23.20;15.25;;;;;;;;;;6282950;22;20343;-84
2022/03/15 05:50:15;;;;;;;24.45;14.48;;;;;;;;;;6284035;22;20034;-84
2022/03/15 05:52:41;;;;;;;23.58;14.88;;;;;;;;;;6257069;22;20000;-84
2022/03/15 05:55:07;;;;;;;21.40;14.52;;;;;;;;;;6255877;22;20059;-84
2022/03/15 05:57:33;;;;;;;23.10;14.70;;;;;;;;;;6255334;22;20000;-83
2022/03/15 05:59:59;;;;;;;26.77;13.80;;;;;;;;;;6255443;22;20328;-83
2022/03/15 06:02:25;;;;;;;21.33;12.98;;;;;;;;;;6281729;22;20002;-84
2022/03/15 06:04:51;;;;;;;25.45;18.13;;;;;;;;;;6281697;22;20020;-84
2022/03/15 06:07:17;;;;;;;28.77;17.48;;;;;;;;;;6254032;22;20026;-83
2022/03/15 06:09:43;;;;;;;26.17;15.95;;;;;;;;;;6254335;22;20329;-83
2022/03/15 06:12:10;;;;;;;26.42;16.63;;;;;;;;;;6255197;22;20374;-83
2022/03/15 06:14:36;;;;;;;28.48;16.98;;;;;;;;;;6254093;22;20000;-84
2022/03/15 06:17:03;;;;;;;23.88;15.32;;;;;;;;;;6254951;22;20095;-84
2022/03/15 06:19:29;;;;;;;20.10;14.60;;;;;;;;;;6282189;22;20038;-83
2022/03/15 06:21:55;;;;;;;59.90;32.45;;;;;;;;;;6253452;22;20000;-84
2022/03/15 06:24:22;;;;;;;44.15;26.33;;;;;;;;;;6253280;22;20030;-84
2022/03/15 06:26:48;;;;;;;41.30;25.48;;;;;;;;;;6254695;22;20003;-85
2022/03/15 06:29:14;;;;;;;34.58;20.88;;;;;;;;;;6281872;22;20015;-84
2022/03/15 06:31:40;;;;;;;31.73;20.73;;;;;;;;;;6280303;22;20000;-83
2022/03/15 06:34:06;;;;;;;33.95;20.08;;;;;;;;;;6253702;22;20062;-83
2022/03/15 06:36:34;;;;;;;28.58;17.50;;;;;;;;;;6281163;22;20064;-83
2022/03/15 06:39:00;;;;;;;28.30;17.63;;;;;;;;;;6281622;22;20024;-84
2022/03/15 06:41:27;;;;;;;28.42;16.77;;;;;;;;;;6281829;22;19996;-84
2022/03/15 06:43:53;;;;;;;28.60;17.25;;;;;;;;;;6254553;22;20091;-84
2022/03/15 06:46:19;;;;;;;24.17;16.70;;;;;;;;;;6253919;22;20011;-83
2022/03/15 06:48:45;;;;;;;26.17;16.95;;;;;;;;;;6281523;22;20006;-83
2022/03/15 06:51:13;;;;;;;25.35;16.60;;;;;;;;;;6253756;22;20000;-83
2022/03/15 06:53:41;;;;;;;22.67;14.90;;;;;;;;;;6254451;22;20008;-83
2022/03/15 06:56:08;;;;;;;26.95;16.52;;;;;;;;;;6257945;22;20053;-83
2022/03/15 06:58:34;;;;;;;24.35;15.80;;;;;;;;;;6259603;22;20004;-83
2022/03/15 07:01:00;;;;;;;25.58;16.02;;;;;;;;;;6286212;22;20447;-83
2022/03/15 07:03:26;;;;;;;26.02;16.25;;;;;;;;;;6255515;22;20010;-83
2022/03/15 07:05:52;;;;;;;24.60;15.88;;;;;;;;;;6255599;22;20007;-83
2022/03/15 07:08:18;;;;;;;23.40;14.32;;;;;;;;;;6256111;22;20008;-84
2022/03/15 07:10:44;;;;;;;20.30;13.93;;;;;;;;;;6283472;22;19999;-83
2022/03/15 07:13:10;;;;;;;25.08;15.25;;;;;;;;;;6283633;22;20004;-83
2022/03/15 07:15:36;;;;;;;28.58;15.50;;;;;;;;;;6284035;22;20000;-83
2022/03/15 07:18:02;;;;;;;25.00;15.73;;;;;;;;;;6257040;22;20006;-83
2022/03/15 07:20:28;;;;;;;23.33;16.10;;;;;;;;;;6283460;22;20418;-84
2022/03/15 07:22:54;;;;;;;25.73;14.68;;;;;;;;;;6256225;22;20011;-82
2022/03/15 07:25:21;;;;;;;23.35;15.88;;;;;;;;;;6256324;22;20000;-83
2022/03/15 07:27:48;;;;;;;21.25;14.30;;;;;;;;;;6283649;22;20007;-82
2022/03/15 07:30:14;;;;;;;23.75;14.75;;;;;;;;;;6255644;22;20031;-83
2022/03/15 07:32:40;;;;;;;22.60;16.25;;;;;;;;;;6256350;22;20003;-82
2022/03/15 07:35:06;;;;;;;30.55;16.95;;;;;;;;;;6256748;22;20000;-82
2022/03/15 07:37:32;;;;;;;23.30;16.35;;;;;;;;;;6283274;22;20050;-81
2022/03/15 07:39:58;;;;;;;18.38;14.10;;;;;;;;;;6256083;22;20038;-83
2022/03/15 07:42:25;;;;;;;20.85;14.18;;;;;;;;;;6283350;22;20424;-81
2022/03/15 07:44:51;;;;;;;24.17;15.27;;;;;;;;;;6255601;22;20000;-81
2022/03/15 07:47:17;;;;;;;26.67;17.35;;;;;;;;;;6283465;22;20070;-82
2022/03/15 07:49:44;;;;;;;25.42;14.48;;;;;;;;;;6283372;22;19996;-82
2022/03/15 07:52:10;;;;;;;21.02;15.38;;;;;;;;;;6283993;22;20006;-82
2022/03/15 07:54:37;;;;;;;20.83;13.93;;;;;;;;;;6256969;22;20027;-82
2022/03/15 07:57:03;;;;;;;25.95;15.23;;;;;;;;;;6281679;22;20141;-82
2022/03/15 07:59:29;;;;;;;22.33;14.48;;;;;;;;;;6254379;22;20015;-81
2022/03/15 08:01:55;;;;;;;22.33;13.75;;;;;;;;;;6283788;22;19999;-81
2022/03/15 08:04:21;;;;;;;21.88;14.48;;;;;;;;;;6284201;22;20004;-83
2022/03/15 08:06:47;;;;;;;20.50;14.40;;;;;;;;;;6283286;22;20004;-81
2022/03/15 08:09:14;;;;;;;22.55;15.27;;;;;;;;;;6285006;22;20008;-83
2022/03/15 08:11:45;;;;;;;21.80;14.55;;;;;;;;;;6284720;22;20046;-81
2022/03/15 08:14:11;;;;;;;20.05;14.10;;;;;;;;;;6256122;22;20027;-82
2022/03/15 08:16:38;;;;;;;23.25;15.13;;;;;;;;;;6257376;22;19999;-81
2022/03/15 08:19:04;;;;;;;21.67;14.25;;;;;;;;;;6256294;22;20026;-83
2022/03/15 08:21:31;;;;;;;20.20;14.55;;;;;;;;;;6256522;22;20004;-81
2022/03/15 08:23:57;;;;;;;23.35;14.57;;;;;;;;;;6255464;22;20063;-82
2022/03/15 08:26:23;;;;;;;21.85;13.98;;;;;;;;;;6255594;22;20015;-81
2022/03/15 08:28:50;;;;;;;23.23;15.25;;;;;;;;;;6255563;22;20110;-82
2022/03/15 08:31:16;;;;;;;21.15;15.05;;;;;;;;;;6255300;22;20007;-82
2022/03/15 08:33:44;;;;;;;22.25;14.80;;;;;;;;;;6284992;22;19999;-82
2022/03/15 08:36:10;;;;;;;22.33;16.70;;;;;;;;;;6287343;22;20436;-82
2022/03/15 08:38:36;;;;;;;22.27;15.20;;;;;;;;;;6258803;22;20087;-82
2022/03/15 08:41:02;;;;;;;22.08;14.43;;;;;;;;;;6255201;22;20057;-82
2022/03/15 08:43:30;;;;;;;21.00;14.43;;;;;;;;;;6256211;22;20026;-81
2022/03/15 08:45:56;;;;;;;21.45;14.40;;;;;;;;;;6284906;22;20028;-83
2022/03/15 08:48:22;;;;;;;20.55;13.25;;;;;;;;;;6281985;22;20007;-83
2022/03/15 08:50:48;;;;;;;23.23;14.93;;;;;;;;;;6285885;22;20004;-83
2022/03/15 08:53:14;;;;;;;20.88;14.45;;;;;;;;;;6284696;22;20014;-84
2022/03/15 08:55:40;;;;;;;20.35;14.20;;;;;;;;;;6257160;22;20007;-84
2022/03/15 08:58:06;;;;;;;20.52;13.88;;;;;;;;;;6283310;22;19996;-83
2022/03/15 09:00:33;;;;;;;20.60;14.10;;;;;;;;;;6283003;22;20094;-82
2022/03/15 09:02:59;;;;;;;19.10;13.40;;;;;;;;;;6257068;22;20007;-81
2022/03/15 09:05:29;;;;;;;18.00;14.40;;;;;;;;;;6284999;22;20008;-82
2022/03/15 09:07:55;;;;;;;21.98;14.43;;;;;;;;;;6283596;22;20467;-82
2022/03/15 09:10:22;;;;;;;20.23;13.68;;;;;;;;;;6255992;22;20029;-82
2022/03/15 09:12:49;;;;;;;19.10;14.10;;;;;;;;;;6256524;22;20106;-82
2022/03/15 09:15:15;;;;;;;21.65;13.75;;;;;;;;;;6284172;22;20439;-81
2022/03/15 09:17:42;;;;;;;20.98;14.68;;;;;;;;;;6283089;22;20000;-83
2022/03/15 09:20:08;;;;;;;20.33;15.43;;;;;;;;;;6284206;22;20000;-82
2022/03/15 09:22:35;;;;;;;25.40;14.80;;;;;;;;;;6256442;22;20000;-81
2022/03/15 09:25:01;;;;;;;21.52;15.07;;;;;;;;;;6283943;22;20000;-81
2022/03/15 09:27:27;;;;;;;25.92;16.33;;;;;;;;;;6258216;22;20010;-81
2022/03/15 09:29:54;;;;;;;22.90;14.90;;;;;;;;;;6257850;22;20003;-83
2022/03/15 09:32:20;;;;;;;20.33;15.05;;;;;;;;;;6256404;22;20000;-82
2022/03/15 09:34:46;;;;;;;22.88;15.52;;;;;;;;;;6281400;22;20083;-82
2022/03/15 09:37:13;;;;;;;20.38;15.38;;;;;;;;;;6283136;22;19996;-83
2022/03/15 09:39:39;;;;;;;23.60;16.13;;;;;;;;;;6258174;22;20428;-81
2022/03/15 09:42:09;;;;;;;21.75;14.98;;;;;;;;;;6287250;22;20007;-82
2022/03/15 09:44:37;;;;;;;21.50;15.20;;;;;;;;;;6256533;22;20483;-83
2022/03/15 09:47:05;;;;;;;20.60;15.18;;;;;;;;;;6284186;22;19996;-83
2022/03/15 09:49:32;;;;;;;24.30;15.10;;;;;;;;;;6255698;22;20007;-83
2022/03/15 09:51:59;;;;;;;22.08;14.75;;;;;;;;;;6257190;22;20008;-83
2022/03/15 09:54:26;;;;;;;20.50;14.52;;;;;;;;;;6284477;22;20034;-83
2022/03/15 09:56:52;;;;;;;22.60;15.02;;;;;;;;;;6283843;22;20335;-83
2022/03/15 09:59:19;;;;;;;22.63;16.25;;;;;;;;;;6255456;22;20087;-82
2022/03/15 10:01:50;;;;;;;21.67;15.65;;;;;;;;;;6282005;22;20071;-82
2022/03/15 10:04:16;;;;;;;20.15;14.82;;;;;;;;;;6284413;22;20022;-80
2022/03/15 10:06:42;;;;;;;21.30;15.60;;;;;;;;;;6258168;22;20008;-82
2022/03/15 10:09:08;;;;;;;23.55;15.93;;;;;;;;;;6258929;22;20015;-82
2022/03/15 10:11:35;;;;;;;22.13;16.27;;;;;;;;;;6288223;22;20006;-82
2022/03/15 10:14:02;;;;;;;21.13;16.00;;;;;;;;;;6261720;22;20034;-83
2022/03/15 10:16:47;;;;;;;23.33;16.50;;;;;;;;;;6287359;22;20010;-81
2022/03/15 10:19:14;;;;;;;26.48;17.88;;;;;;;;;;6287126;22;20355;-83
2022/03/15 10:21:48;;;;;;;22.67;15.73;;;;;;;;;;6285831;22;20022;-85
2022/03/15 10:24:18;;;;;;;22.05;15.95;;;;;;;;;;6257860;22;20008;-82
2022/03/15 10:26:44;;;;;;;21.45;16.20;;;;;;;;;;6259592;22;20007;-84
2022/03/15 10:29:13;;;;;;;21.55;16.25;;;;;;;;;;6260459;22;20003;-83
2022/03/15 10:31:39;;;;;;;23.77;15.23;;;;;;;;;;6287813;22;20000;-84
2022/03/15 10:34:07;;;;;;;23.13;15.00;;;;;;;;;;6261179;22;20080;-82
2022/03/15 10:36:40;;;;;;;18.23;13.68;;;;;;;;;;6261588;22;20007;-83
2022/03/15 10:39:07;;;;;;;19.17;13.50;;;;;;;;;;6262155;22;20003;-83
2022/03/15 10:41:42;;;;;;;21.83;13.27;;;;;;;;;;6261426;22;19999;-84
2022/03/15 10:44:29;;;;;;;19.83;14.52;;;;;;;;;;6261644;22;20011;-83
2022/03/15 10:47:04;;;;;;;23.08;13.05;;;;;;;;;;6286314;22;19999;-84
2022/03/15 10:49:31;;;;;;;19.75;13.73;;;;;;;;;;6262372;22;20062;-81
2022/03/15 10:51:57;;;;;;;21.42;13.20;;;;;;;;;;6259718;22;20067;-81
2022/03/15 10:54:25;;;;;;;17.38;13.05;;;;;;;;;;6260760;22;20012;-82
2022/03/15 10:56:52;;;;;;;19.02;13.27;;;;;;;;;;6289159;22;19980;-82
2022/03/15 10:59:18;;;;;;;20.15;11.98;;;;;;;;;;6263143;22;20014;-83
2022/03/15 11:01:44;;;;;;;19.73;11.40;;;;;;;;;;6288466;22;19996;-83
2022/03/15 11:04:10;;;;;;;18.35;11.95;;;;;;;;;;6288599;22;20011;-83
2022/03/15 11:06:41;;;;;;;16.77;11.57;;;;;;;;;;6288326;22;20004;-84
2022/03/15 11:09:27;;;;;;;16.88;11.65;;;;;;;;;;6288316;22;20007;-82
2022/03/15 11:12:13;;;;;;;17.50;11.18;;;;;;;;;;6289124;22;20020;-82
2022/03/15 11:14:45;;;;;;;20.38;10.48;;;;;;;;;;6286801;22;20007;-82
2022/03/15 11:17:19;;;;;;;19.67;11.38;;;;;;;;;;6260384;22;20006;-82
2022/03/15 11:19:45;;;;;;;15.15;11.02;;;;;;;;;;6286161;22;20007;-84
2022/03/15 11:22:12;;;;;;;17.90;11.63;;;;;;;;;;6258258;22;19995;-83
2022/03/15 11:24:42;;;;;;;19.30;10.57;;;;;;;;;;6285703;22;20261;-83
2022/03/15 11:27:08;;;;;;;15.52;10.55;;;;;;;;;;6286138;22;20049;-84
2022/03/15 11:29:35;;;;;;;15.65;9.57;;;;;;;;;;6288007;22;20026;-83
2022/03/15 11:32:02;;;;;;;14.10;9.32;;;;;;;;;;6287539;22;20000;-82
2022/03/15 11:34:29;;;;;;;14.48;10.38;;;;;;;;;;6287848;22;19995;-83
2022/03/15 11:36:56;;;;;;;13.13;9.98;;;;;;;;;;6260529;22;20451;-82
2022/03/15 11:39:22;;;;;;;12.95;9.52;;;;;;;;;;6288440;22;20103;-84
2022/03/15 11:41:49;;;;;;;13.98;8.85;;;;;;;;;;6262578;22;20007;-83
2022/03/15 11:44:22;;;;;;;15.20;9.60;;;;;;;;;;6260399;22;20008;-84
2022/03/15 11:46:55;;;;;;;18.02;9.60;;;;;;;;;;6258059;22;20014;-83
2022/03/15 11:49:27;;;;;;;12.75;8.77;;;;;;;;;;6262101;22;20000;-86
2022/03/15 11:51:56;;;;;;;13.40;9.23;;;;;;;;;;6263537;22;20007;-83
2022/03/15 11:54:43;;;;;;;13.40;8.95;;;;;;;;;;6286948;22;20003;-86
2022/03/15 11:57:25;;;;;;;13.93;8.95;;;;;;;;;;6236245;22;20000;-82
2022/03/15 11:59:52;;;;;;;11.25;8.57;;;;;;;;;;6260289;22;20447;-84
2022/03/15 12:02:28;;;;;;;12.50;8.43;;;;;;;;;;6259849;22;20007;-83
2022/03/15 12:04:55;;;;;;;13.20;8.70;;;;;;;;;;6287774;22;20300;-84
2022/03/15 12:07:47;;;;;;;13.55;8.85;;;;;;;;;;6286450;22;20001;-84
2022/03/15 12:10:29;;;;;;;11.10;8.07;;;;;;;;;;6289430;22;20000;-83
2022/03/15 12:13:00;;;;;;;13.05;8.82;;;;;;;;;;6287272;22;19995;-83
2022/03/15 12:15:34;;;;;;;13.40;8.20;;;;;;;;;;6258595;22;20000;-86
2022/03/15 12:18:23;;;;;;;12.20;8.30;;;;;;;;;;6269614;22;19987;-85
2022/03/15 12:21:02;;;;;;;14.02;7.75;;;;;;;;;;6295984;22;20002;-84
2022/03/15 12:23:29;;;;;;;10.93;7.95;;;;;;;;;;6299254;22;20030;-84
2022/03/15 12:25:57;;;;;;;13.50;8.18;;;;;;;;;;6296712;22;20340;-84
2022/03/15 12:28:30;;;;;;;11.40;8.05;;;;;;;;;;6266941;22;20007;-85
2022/03/15 12:31:09;;;;;;;14.15;8.77;;;;;;;;;;6286337;22;20000;-83
2022/03/15 12:33:36;;;;;;;19.35;9.48;;;;;;;;;;6288623;22;20378;-84
2022/03/15 12:36:06;;;;;;;20.40;8.80;;;;;;;;;;6287167;22;20424;-84
2022/03/15 12:38:37;;;;;;;14.52;8.75;;;;;;;;;;6258580;22;20451;-83
2022/03/15 12:41:04;;;;;;;14.00;7.53;;;;;;;;;;6262768;22;20073;-82
2022/03/15 12:43:31;;;;;;;17.42;9.25;;;;;;;;;;6259612;22;20003;-85
2022/03/15 12:46:00;;;;;;;12.65;7.75;;;;;;;;;;6260388;22;20398;-83
2022/03/15 12:48:30;;;;;;;13.20;8.70;;;;;;;;;;6286013;22;20004;-84
2022/03/15 12:50:59;;;;;;;10.95;8.02;;;;;;;;;;6287068;22;20047;-83
2022/03/15 12:53:36;;;;;;;11.50;7.95;;;;;;;;;;6269390;22;20034;-82
2022/03/15 12:56:02;;;;;;;14.15;7.65;;;;;;;;;;6269161;22;20010;-84
2022/03/15 12:58:32;;;;;;;12.02;8.68;;;;;;;;;;6269842;22;20000;-83
2022/03/15 13:00:58;;;;;;;12.82;7.72;;;;;;;;;;6293708;22;20019;-84
2022/03/15 13:03:24;;;;;;;19.27;9.65;;;;;;;;;;6286782;22;20023;-83
2022/03/15 13:05:54;;;;;;;12.20;8.40;;;;;;;;;;6284927;22;20006;-83
2022/03/15 13:08:20;;;;;;;11.82;7.85;;;;;;;;;;6257301;22;20347;-83
2022/03/15 13:10:47;;;;;;;12.52;8.05;;;;;;;;;;6285630;22;20026;-86
2022/03/15 13:13:29;;;;;;;15.02;8.38;;;;;;;;;;6286826;22;20003;-84
2022/03/15 13:15:57;;;;;;;12.63;7.80;;;;;;;;;;6285728;22;19995;-82
2022/03/15 13:18:24;;;;;;;11.75;8.05;;;;;;;;;;6258855;22;20053;-83
2022/03/15 13:20:55;;;;;;;15.60;9.13;;;;;;;;;;6259222;22;20440;-84
2022/03/15 13:23:22;;;;;;;15.05;9.32;;;;;;;;;;6284822;22;20000;-84
2022/03/15 13:25:50;;;;;;;15.15;9.93;;;;;;;;;;6288368;22;20002;-82
2022/03/15 13:28:16;;;;;;;14.45;8.77;;;;;;;;;;6264154;22;20015;-84
2022/03/15 13:30:43;;;;;;;14.90;9.63;;;;;;;;;;6289308;22;20010;-84
2022/03/15 13:33:09;;;;;;;13.32;9.30;;;;;;;;;;6287393;22;20079;-85
2022/03/15 13:35:35;;;;;;;15.38;10.52;;;;;;;;;;6259078;22;20006;-84
2022/03/15 13:38:13;;;;;;;14.80;10.82;;;;;;;;;;6258047;22;20000;-83
2022/03/15 13:40:39;;;;;;;12.75;9.82;;;;;;;;;;6286834;22;20006;-83
2022/03/15 13:43:05;;;;;;;14.45;9.93;;;;;;;;;;6285454;22;20000;-86
2022/03/15 13:45:32;;;;;;;15.80;10.48;;;;;;;;;;6256648;22;20428;-84
2022/03/15 13:47:59;;;;;;;18.30;10.55;;;;;;;;;;6259648;22;20011;-85
2022/03/15 13:50:25;;;;;;;14.35;9.68;;;;;;;;;;6283607;22;20396;-83
2022/03/15 13:52:51;;;;;;;17.75;11.73;;;;;;;;;;6255576;22;19996;-83
2022/03/15 13:55:25;;;;;;;15.73;10.32;;;;;;;;;;6286383;22;20090;-84
2022/03/15 13:57:51;;;;;;;13.18;10.25;;;;;;;;;;6256130;22;20440;-83
2022/03/15 14:00:18;;;;;;;16.63;10.95;;;;;;;;;;6255299;22;20048;-85
2022/03/15 14:02:46;;;;;;;16.55;10.68;;;;;;;;;;6284778;22;20003;-85
2022/03/15 14:05:14;;;;;;;14.90;11.02;;;;;;;;;;6256630;22;20004;-84
2022/03/15 14:07:40;;;;;;;13.57;11.10;;;;;;;;;;6286904;22;20026;-84
2022/03/15 14:10:08;;;;;;;14.73;9.73;;;;;;;;;;6257896;22;20061;-84
2022/03/15 14:12:35;;;;;;;12.88;10.13;;;;;;;;;;6285223;22;20019;-84
2022/03/15 14:15:05;;;;;;;23.60;11.43;;;;;;;;;;6258932;22;20000;-85
2022/03/15 14:17:42;;;;;;;16.90;11.38;;;;;;;;;;6285575;22;20024;-84
2022/03/15 14:20:12;;;;;;;17.38;10.38;;;;;;;;;;6286732;22;20006;-84